San Antonio International Airport
KSAT : rendu visible

Aérodrome :











RETROUVEZ-NOUS SUR...

 
LOGIN :

S'inscrire | Disclaimer

   EN    FR    IT 

 









Légende :    VFR   VFR Marginal   IFR   IFR Intensif   IFR Très Intensif
Visi : 
Plafond : 
>= 8 km
>= 3000ft
5 à 8 km
1000 à 3000 ft
1500m à 5 km
500 à 1000 ft
800 à 1500m
200 à 500 ft
< 800m
< 200 ft
Symboles :   Orages  Brouillard  Fortes neiges  Fortes précipitations  Vent > 20 kt






- Altitude de l'aérodrome : 809 ft
- Code IATA : SAT


KSAT - San Antonio International

DERNIER METAR :
  • 271751Z 21007KT 180V260 10SM CLR 12/M06 A3042 RMK AO2 SLP293 T01171056 10122 21017 58007

METARs EXPIRÉS :
  • 271651Z 23006KT 10SM CLR 11/M05 A3044 RMK AO2 SLP300 T01111050
  • 271551Z 18005KT 10SM CLR 09/M06 A3045 RMK AO2 SLP307 T00941056

TAF KSAT
Valide du 27 à 18h jusqu'au 29 à 00h UTC


271742Z 2718/2824 23008KT P6SM SKC
FM280100 18005KT P6SM SKC
FM281600 27005KT P6SM SKC



MET'MAP, la Météo Aéronautique d'un coup d'oeil ! - Copyright ORBIFLY Décembre 2007 - Disclaimer

ORBIFLY MET'MAP TEAM :

Programmation & Développement : Alexandra Zaïnal
Sur une idée originale de : Baudouin d'Aumeries
Assistance à la programmation : Marc-Olivier Méhu
Soutien technique & logistique : Manuel Goepfert

Contact : metmap@orbifly.com




SOURCES & CREDITS :

   NOAA       Earth
Advisory